CEW weather

Bob Sikes Airport
Crestview, Florida, United States

Public forecast

Using degrees Fahrenheit for public forecast. Weather courtesy of forecast.io.

METAR (pilot weather report)

Retrieved 2019/09/17 23:53 UTC (49 minutes ago):

KCEW 172353Z AUTO 24005KT 10SM CLR 32/19 A2993 RMK AO2 SLP132 T03220189 10383 20322 55000

TAF (pilot weather forecast)

Closest forecast is Duke Field, 7.7 nm (14.3 km) S. Retrieved 2019/09/18 01:00 UTC (0 seconds ago):

TAF KEGI 180100Z 1801/1907 VRB06KT 9999 FEW060 QNH2994INS BECMG 1814/1815 32009KT 9999 SCT050 QNH2990INS BECMG 1902/1903 VRB06KT 9999 BKN050 QNH2994INS TX37/1819Z TN22/1811Z LAST NO AMDS AFT 1806 NEXT 1809